Time;durP1;ratioP1;P1;durP2;ratioP2;P2;SDS_P1;SDS_P2;PMS_P1;PMS_P2;Temp;Humidity;BMP_temperature;BMP_pressure;BME280_temperature;BME280_humidity;BME280_pressure;Samples;Min_cycle;Max_cycle;Signal;HPM_P1;HPM_P2
2022/09/16 00:01:10;;;;;;;;;;;14.50;99.90;;;;;;8404481;28;20011;-75
2022/09/16 00:05:11;;;;;;;;;;;14.50;99.90;;;;;;8403984;28;19924;-75
2022/09/16 00:09:13;;;;;;;;;;;14.40;99.90;;;;;;8404509;28;19933;-75
2022/09/16 00:13:15;;;;;;;;;;;14.40;99.90;;;;;;8404270;28;20398;-74
2022/09/16 00:17:17;;;;;;;;;;;14.40;99.90;;;;;;8402259;28;22020;-74
2022/09/16 00:21:18;;;;;;;;;;;14.40;99.90;;;;;;8409300;28;20358;-74
2022/09/16 00:25:20;;;;;;;;;;;14.40;99.90;;;;;;8397412;28;19932;-74
2022/09/16 00:29:21;;;;;;;;;;;14.40;99.90;;;;;;8401757;28;19924;-74
2022/09/16 00:33:23;;;;;;;;;;;14.40;99.90;;;;;;8400934;28;19925;-74
2022/09/16 00:37:25;;;;;;;;;;;14.40;99.90;;;;;;8402900;28;19931;-74
2022/09/16 00:41:31;;;;;;;;;;;14.40;99.90;;;;;;8405265;28;20027;-75
2022/09/16 00:45:33;;;;;;;;;;;14.40;99.90;;;;;;8404110;28;20019;-74
2022/09/16 00:49:35;;;;;;;;;;;14.40;99.90;;;;;;8407003;28;19932;-74
2022/09/16 00:53:39;;;;;;;;;;;14.40;99.90;;;;;;8408760;28;20423;-74
2022/09/16 00:57:44;;;;;;;;;;;14.30;99.90;;;;;;8407862;28;19946;-74
2022/09/16 01:01:45;;;;;;;;;;;14.30;99.90;;;;;;8418009;28;20419;-75
2022/09/16 01:05:47;;;;;;;;;;;14.30;99.90;;;;;;8418652;28;19923;-75
2022/09/16 01:09:49;;;;;;;;;;;14.30;99.90;;;;;;8403968;28;19924;-75
2022/09/16 01:13:51;;;;;;;;;;;14.30;99.90;;;;;;8401860;28;21681;-74
2022/09/16 01:18:11;;;;;;;;;;;14.30;99.90;;;;;;8437692;27;19930;-74
2022/09/16 01:22:28;;;;;;;;;;;14.30;99.90;;;;;;8416598;27;20754;-74
2022/09/16 01:26:45;;;;;;;;;;;14.30;99.90;;;;;;8411535;28;19966;-75
2022/09/16 01:30:59;;;;;;;;;;;14.20;99.90;;;;;;8401300;28;20382;-74
2022/09/16 01:35:01;;;;;;;;;;;14.20;99.90;;;;;;8401295;28;19935;-74
2022/09/16 01:39:18;;;;;;;;;;;14.20;99.90;;;;;;8406048;28;19935;-75
2022/09/16 01:43:47;;;;;;;;;;;14.30;99.90;;;;;;8415267;28;19934;-75
2022/09/16 01:47:51;;;;;;;;;;;14.30;99.90;;;;;;8393641;28;19943;-74
2022/09/16 01:51:53;;;;;;;;;;;14.30;99.90;;;;;;8402338;28;19951;-74
2022/09/16 01:56:01;;;;;;;;;;;14.30;99.90;;;;;;8409442;28;19940;-75
2022/09/16 02:00:07;;;;;;;;;;;14.20;99.90;;;;;;8405679;28;20027;-74
2022/09/16 02:04:12;;;;;;;;;;;14.20;99.90;;;;;;8410276;28;19928;-75
2022/09/16 02:08:17;;;;;;;;;;;14.20;99.90;;;;;;8406592;28;20459;-74
2022/09/16 02:12:22;;;;;;;;;;;14.10;99.90;;;;;;8408017;28;20438;-75
2022/09/16 02:16:44;;;;;;;;;;;14.00;99.90;;;;;;8412498;28;19979;-75
2022/09/16 02:20:46;;;;;;;;;;;14.00;99.90;;;;;;8404414;28;20015;-74
2022/09/16 02:24:48;;;;;;;;;;;13.90;99.90;;;;;;8402494;28;20280;-74
2022/09/16 02:28:52;;;;;;;;;;;13.90;99.90;;;;;;8439634;27;19924;-75
2022/09/16 02:32:57;;;;;;;;;;;13.80;99.90;;;;;;8409153;28;19975;-75
2022/09/16 02:37:03;;;;;;;;;;;13.80;99.90;;;;;;8397965;28;20374;-74
2022/09/16 02:41:05;;;;;;;;;;;13.90;99.90;;;;;;8404689;28;19934;-75
2022/09/16 02:45:07;;;;;;;;;;;13.80;99.90;;;;;;8408474;28;20351;-74
2022/09/16 02:49:14;;;;;;;;;;;13.80;99.90;;;;;;8398952;28;19928;-75
2022/09/16 02:53:37;;;;;;;;;;;13.80;99.90;;;;;;8404009;28;19935;-74
2022/09/16 02:57:38;;;;;;;;;;;13.70;99.90;;;;;;8399150;28;20054;-74
2022/09/16 03:01:42;;;;;;;;;;;13.70;99.90;;;;;;8408033;28;19947;-74
2022/09/16 03:06:09;;;;;;;;;;;13.60;99.90;;;;;;8399463;28;20309;-74
2022/09/16 03:10:12;;;;;;;;;;;13.60;99.90;;;;;;8391137;28;19954;-74
2022/09/16 03:14:13;;;;;;;;;;;13.70;99.90;;;;;;8403958;28;21458;-78
2022/09/16 03:18:18;;;;;;;;;;;13.70;99.90;;;;;;8407400;28;19924;-75
2022/09/16 03:22:28;;;;;;;;;;;13.70;99.90;;;;;;8412395;28;19932;-74
2022/09/16 03:26:51;;;;;;;;;;;13.80;99.90;;;;;;8414076;28;20283;-74
2022/09/16 03:30:56;;;;;;;;;;;13.70;99.90;;;;;;8404869;28;19954;-74
2022/09/16 03:34:59;;;;;;;;;;;13.70;99.90;;;;;;8424030;27;20379;-75
2022/09/16 03:39:02;;;;;;;;;;;13.70;99.90;;;;;;8398926;28;19932;-75
2022/09/16 03:43:14;;;;;;;;;;;13.70;99.90;;;;;;8401303;28;19924;-74
2022/09/16 03:47:16;;;;;;;;;;;13.70;99.90;;;;;;8399069;28;20386;-74
2022/09/16 03:51:18;;;;;;;;;;;13.70;99.90;;;;;;8407710;28;19931;-75
2022/09/16 03:55:19;;;;;;;;;;;13.60;99.90;;;;;;8407391;28;19924;-74
2022/09/16 03:59:21;;;;;;;;;;;13.60;99.90;;;;;;8396066;28;20433;-74
2022/09/16 04:03:22;;;;;;;;;;;13.50;99.90;;;;;;8407863;28;20015;-74
2022/09/16 04:07:24;;;;;;;;;;;13.50;99.90;;;;;;8410264;28;19930;-75
2022/09/16 04:11:28;;;;;;;;;;;13.50;99.90;;;;;;8404351;28;19924;-74
2022/09/16 04:15:30;;;;;;;;;;;13.40;99.90;;;;;;8405600;28;19956;-75
2022/09/16 04:19:32;;;;;;;;;;;13.40;99.90;;;;;;8424018;28;19932;-74
2022/09/16 04:23:33;;;;;;;;;;;13.40;99.90;;;;;;8413313;28;19935;-74
2022/09/16 04:27:35;;;;;;;;;;;13.40;99.90;;;;;;8412400;28;20306;-74
2022/09/16 04:31:37;;;;;;;;;;;13.40;99.90;;;;;;8409155;28;20483;-75
2022/09/16 04:35:38;;;;;;;;;;;13.40;99.90;;;;;;8405724;28;19930;-74
2022/09/16 04:39:40;;;;;;;;;;;13.40;99.90;;;;;;8390900;28;19933;-74
2022/09/16 04:43:42;;;;;;;;;;;13.40;99.90;;;;;;8403163;28;19951;-74
2022/09/16 04:47:43;;;;;;;;;;;13.30;99.90;;;;;;8409264;28;20398;-74
2022/09/16 04:51:45;;;;;;;;;;;13.30;99.90;;;;;;8406343;28;20913;-74
2022/09/16 04:55:47;;;;;;;;;;;13.30;99.90;;;;;;8404549;28;20054;-74
2022/09/16 04:59:48;;;;;;;;;;;13.30;99.90;;;;;;8400263;28;19970;-74
2022/09/16 05:03:51;;;;;;;;;;;13.30;99.90;;;;;;8399611;28;19928;-74
2022/09/16 05:07:53;;;;;;;;;;;13.30;99.90;;;;;;8405333;28;19930;-74
2022/09/16 05:11:55;;;;;;;;;;;13.30;99.90;;;;;;8409108;28;20038;-74
2022/09/16 05:15:59;;;;;;;;;;;13.30;99.90;;;;;;8408059;28;19924;-74
2022/09/16 05:20:02;;;;;;;;;;;13.30;99.90;;;;;;8401068;28;20485;-74
2022/09/16 05:24:07;;;;;;;;;;;13.20;99.90;;;;;;8412583;28;19928;-74
2022/09/16 05:28:09;;;;;;;;;;;13.20;99.90;;;;;;8413924;28;19956;-74
2022/09/16 05:32:11;;;;;;;;;;;13.20;99.90;;;;;;8408650;28;20387;-74
2022/09/16 05:36:14;;;;;;;;;;;13.20;99.90;;;;;;8426974;28;20011;-74
2022/09/16 05:40:16;;;;;;;;;;;13.10;99.90;;;;;;8417080;28;19935;-74
2022/09/16 05:44:17;;;;;;;;;;;13.10;99.90;;;;;;8437060;27;19924;-73
2022/09/16 05:48:19;;;;;;;;;;;13.10;99.90;;;;;;8419317;28;20022;-73
2022/09/16 05:52:23;;;;;;;;;;;13.00;99.90;;;;;;8415752;28;19928;-73
2022/09/16 05:56:25;;;;;;;;;;;13.00;99.90;;;;;;8410886;28;19927;-73
2022/09/16 06:00:27;;;;;;;;;;;13.10;99.90;;;;;;8409807;28;20009;-73
2022/09/16 06:04:29;;;;;;;;;;;13.10;99.90;;;;;;8412613;28;19924;-73
2022/09/16 06:08:31;;;;;;;;;;;13.10;99.90;;;;;;8397724;28;19931;-74
2022/09/16 06:12:33;;;;;;;;;;;13.20;99.90;;;;;;8395149;28;19924;-74
2022/09/16 06:16:35;;;;;;;;;;;13.20;99.90;;;;;;8404119;28;19928;-74
2022/09/16 06:20:37;;;;;;;;;;;13.20;99.90;;;;;;8401178;28;20383;-74
2022/09/16 06:24:38;;;;;;;;;;;13.10;99.90;;;;;;8434871;27;19924;-74
2022/09/16 06:28:41;;;;;;;;;;;13.20;99.90;;;;;;8409761;28;20398;-74
2022/09/16 06:32:42;;;;;;;;;;;13.20;99.90;;;;;;8412419;28;19924;-74
2022/09/16 06:36:44;;;;;;;;;;;13.30;99.90;;;;;;8406754;28;19928;-74
2022/09/16 06:40:46;;;;;;;;;;;13.30;99.90;;;;;;8403157;28;19928;-74
2022/09/16 06:44:48;;;;;;;;;;;13.40;99.90;;;;;;8406787;28;20018;-74
2022/09/16 06:48:50;;;;;;;;;;;13.40;99.90;;;;;;8414025;28;20294;-75
2022/09/16 06:52:52;;;;;;;;;;;13.50;99.90;;;;;;8410872;28;20279;-74
2022/09/16 06:56:54;;;;;;;;;;;13.40;99.90;;;;;;8414939;28;20335;-74
2022/09/16 07:00:55;;;;;;;;;;;13.50;99.90;;;;;;8402168;28;19928;-75
2022/09/16 07:04:57;;;;;;;;;;;13.60;99.90;;;;;;8393379;28;20448;-74
2022/09/16 07:08:59;;;;;;;;;;;13.70;99.90;;;;;;8434117;27;19986;-74
2022/09/16 07:13:00;;;;;;;;;;;13.70;99.90;;;;;;8433187;27;20414;-74
2022/09/16 07:17:02;;;;;;;;;;;13.70;99.90;;;;;;8391747;28;20341;-74
2022/09/16 07:21:11;;;;;;;;;;;13.70;99.90;;;;;;8391455;28;19939;-74
2022/09/16 07:25:12;;;;;;;;;;;13.70;99.90;;;;;;8388626;28;20007;-74
2022/09/16 07:29:16;;;;;;;;;;;13.80;99.90;;;;;;8424184;27;20014;-75
2022/09/16 07:33:17;;;;;;;;;;;13.80;99.90;;;;;;8393594;28;19930;-73
2022/09/16 07:37:19;;;;;;;;;;;13.80;99.90;;;;;;8385023;28;19990;-74
2022/09/16 07:41:22;;;;;;;;;;;13.90;99.90;;;;;;8386918;28;19930;-73
2022/09/16 07:45:24;;;;;;;;;;;14.00;99.90;;;;;;8383969;28;19931;-73
2022/09/16 07:49:26;;;;;;;;;;;14.00;99.90;;;;;;8387710;28;20394;-73
2022/09/16 07:53:28;;;;;;;;;;;14.10;99.90;;;;;;8388785;28;19935;-73
2022/09/16 07:57:30;;;;;;;;;;;14.10;99.90;;;;;;8385894;28;20299;-73
2022/09/16 08:01:32;;;;;;;;;;;14.20;99.90;;;;;;8380970;28;19979;-72
2022/09/16 08:05:33;;;;;;;;;;;14.30;99.90;;;;;;8388880;28;20019;-73
2022/09/16 08:09:36;;;;;;;;;;;14.30;99.90;;;;;;8393670;28;20391;-73
2022/09/16 08:13:42;;;;;;;;;;;14.40;99.90;;;;;;8425079;27;19970;-73
2022/09/16 08:17:44;;;;;;;;;;;14.50;99.90;;;;;;8395300;28;20360;-73
2022/09/16 08:21:45;;;;;;;;;;;14.60;99.90;;;;;;8392579;28;19935;-72
2022/09/16 08:25:54;;;;;;;;;;;14.80;99.90;;;;;;8386776;28;19963;-73
2022/09/16 08:29:56;;;;;;;;;;;14.80;99.90;;;;;;8386128;28;19938;-73
2022/09/16 08:33:58;;;;;;;;;;;14.70;99.90;;;;;;8382892;28;19930;-73
2022/09/16 08:37:59;;;;;;;;;;;14.50;99.90;;;;;;8392692;28;20267;-72
2022/09/16 08:42:07;;;;;;;;;;;14.30;99.90;;;;;;8386471;28;20011;-72
2022/09/16 08:46:15;;;;;;;;;;;14.20;99.90;;;;;;8394772;28;19924;-73
2022/09/16 08:50:21;;;;;;;;;;;14.10;99.90;;;;;;8387249;28;19932;-73
2022/09/16 08:54:26;;;;;;;;;;;14.10;99.90;;;;;;8386154;28;19967;-74
2022/09/16 08:58:48;;;;;;;;;;;14.20;99.90;;;;;;8393131;28;20332;-73
2022/09/16 09:02:52;;;;;;;;;;;14.40;99.90;;;;;;8390206;28;19928;-73
2022/09/16 09:07:00;;;;;;;;;;;14.40;99.90;;;;;;8394331;28;19966;-74
2022/09/16 09:11:15;;;;;;;;;;;14.40;99.90;;;;;;8404330;28;20443;-73
2022/09/16 09:15:36;;;;;;;;;;;14.40;99.90;;;;;;8392998;28;20287;-73
2022/09/16 09:19:48;;;;;;;;;;;14.50;99.90;;;;;;8389911;28;19942;-74
2022/09/16 09:24:18;;;;;;;;;;;14.60;99.90;;;;;;8396282;28;20181;-73
2022/09/16 09:28:22;;;;;;;;;;;14.60;99.90;;;;;;8396043;28;19932;-73
2022/09/16 09:32:24;;;;;;;;;;;14.60;99.90;;;;;;8392991;28;19961;-73
2022/09/16 09:36:31;;;;;;;;;;;14.50;99.90;;;;;;8392230;28;19956;-73
2022/09/16 09:40:47;;;;;;;;;;;14.30;99.90;;;;;;8391119;28;19924;-73
2022/09/16 09:45:03;;;;;;;;;;;14.20;99.90;;;;;;8395415;28;22010;-73
2022/09/16 09:49:15;;;;;;;;;;;14.30;99.90;;;;;;8401370;28;20364;-73
2022/09/16 09:53:24;;;;;;;;;;;14.40;99.90;;;;;;8431997;27;19924;-73
2022/09/16 09:57:28;;;;;;;;;;;14.60;99.90;;;;;;8388872;28;19924;-74
2022/09/16 10:01:30;;;;;;;;;;;14.70;99.90;;;;;;8389963;28;20307;-73
2022/09/16 10:05:32;;;;;;;;;;;14.80;99.90;;;;;;8390340;28;19925;-73
2022/09/16 10:09:35;;;;;;;;;;;14.90;99.90;;;;;;8387152;28;19935;-73
2022/09/16 10:13:46;;;;;;;;;;;14.90;99.90;;;;;;8388060;28;19939;-73
2022/09/16 10:17:49;;;;;;;;;;;15.10;99.90;;;;;;8385286;28;19925;-73
2022/09/16 10:21:55;;;;;;;;;;;15.20;99.90;;;;;;8383749;28;19932;-74
2022/09/16 10:26:03;;;;;;;;;;;15.20;99.90;;;;;;8387856;28;19940;-73
2022/09/16 10:30:10;;;;;;;;;;;15.10;99.90;;;;;;8380357;28;19932;-74
2022/09/16 10:34:31;;;;;;;;;;;15.00;99.90;;;;;;8391733;28;19925;-73
2022/09/16 10:38:40;;;;;;;;;;;14.80;99.90;;;;;;8396953;28;19929;-72
2022/09/16 10:42:45;;;;;;;;;;;14.50;99.90;;;;;;8392889;28;19928;-73
2022/09/16 10:47:09;;;;;;;;;;;14.30;99.90;;;;;;8398423;28;19931;-73
2022/09/16 10:51:23;;;;;;;;;;;14.20;99.90;;;;;;8394149;28;20307;-73
2022/09/16 10:55:31;;;;;;;;;;;14.10;99.90;;;;;;8397210;28;20789;-72
2022/09/16 10:59:33;;;;;;;;;;;14.10;99.90;;;;;;8393667;28;19928;-73
2022/09/16 11:03:34;;;;;;;;;;;14.00;99.90;;;;;;8392369;28;19974;-73
2022/09/16 11:07:41;;;;;;;;;;;14.00;99.90;;;;;;8396314;28;20161;-73
2022/09/16 11:11:55;;;;;;;;;;;13.90;99.90;;;;;;8385793;28;19939;-72
2022/09/16 11:16:06;;;;;;;;;;;13.90;99.90;;;;;;8398068;28;19932;-72
2022/09/16 11:20:26;;;;;;;;;;;13.90;99.90;;;;;;8391659;28;20320;-73
2022/09/16 11:24:52;;;;;;;;;;;14.10;99.90;;;;;;8395091;28;19932;-73
2022/09/16 11:29:04;;;;;;;;;;;14.30;99.90;;;;;;8393820;28;20004;-73
2022/09/16 11:33:15;;;;;;;;;;;14.50;99.90;;;;;;8392681;28;19971;-73
2022/09/16 11:37:28;;;;;;;;;;;14.60;99.90;;;;;;8396027;28;19928;-73
2022/09/16 11:41:53;;;;;;;;;;;14.80;99.90;;;;;;8391903;28;19940;-73
2022/09/16 11:46:03;;;;;;;;;;;14.90;99.90;;;;;;8396097;28;19970;-73
2022/09/16 11:50:21;;;;;;;;;;;14.70;99.90;;;;;;8416006;27;20299;-73
2022/09/16 11:54:38;;;;;;;;;;;14.50;99.90;;;;;;8392542;28;19954;-72
2022/09/16 11:58:45;;;;;;;;;;;14.30;99.90;;;;;;8398185;28;19952;-72
2022/09/16 12:03:00;;;;;;;;;;;14.30;99.90;;;;;;8387010;28;19928;-72
2022/09/16 12:07:08;;;;;;;;;;;14.40;99.90;;;;;;8388399;28;19924;-73
2022/09/16 12:11:22;;;;;;;;;;;14.70;99.90;;;;;;8385533;28;19928;-73
2022/09/16 12:15:26;;;;;;;;;;;14.80;99.90;;;;;;8393787;28;19924;-72
2022/09/16 12:19:30;;;;;;;;;;;14.90;99.90;;;;;;8390164;28;20480;-73
2022/09/16 12:23:34;;;;;;;;;;;14.90;99.90;;;;;;8384327;28;19935;-72
2022/09/16 12:27:43;;;;;;;;;;;15.10;99.90;;;;;;8391926;28;19929;-73
2022/09/16 12:31:48;;;;;;;;;;;15.20;99.90;;;;;;8386608;28;20320;-72
2022/09/16 12:35:58;;;;;;;;;;;15.40;99.90;;;;;;8384917;28;20291;-73
2022/09/16 12:40:00;;;;;;;;;;;15.40;99.90;;;;;;8393255;28;19931;-73
2022/09/16 12:44:05;;;;;;;;;;;15.50;99.90;;;;;;8397420;28;19924;-72
2022/09/16 12:48:24;;;;;;;;;;;15.50;99.90;;;;;;8394756;28;20287;-73
2022/09/16 12:52:41;;;;;;;;;;;15.70;99.90;;;;;;8391303;28;19924;-73
2022/09/16 12:56:58;;;;;;;;;;;15.70;99.90;;;;;;8400131;28;20284;-73
2022/09/16 13:01:13;;;;;;;;;;;15.60;99.90;;;;;;8399060;28;19928;-73
2022/09/16 13:05:17;;;;;;;;;;;15.40;99.90;;;;;;8398576;28;20005;-73
2022/09/16 13:09:21;;;;;;;;;;;15.20;99.90;;;;;;8396952;28;20387;-73
2022/09/16 13:13:31;;;;;;;;;;;14.90;99.90;;;;;;8399633;28;19928;-73
2022/09/16 13:17:34;;;;;;;;;;;14.70;99.90;;;;;;8398710;28;20352;-73
2022/09/16 13:21:39;;;;;;;;;;;14.70;99.90;;;;;;8404454;28;19959;-73
2022/09/16 13:25:59;;;;;;;;;;;14.70;99.90;;;;;;8393941;28;19931;-74
2022/09/16 13:30:07;;;;;;;;;;;14.70;99.90;;;;;;8389001;28;20370;-74
2022/09/16 13:34:16;;;;;;;;;;;15.00;99.90;;;;;;8392537;28;19944;-73
2022/09/16 13:38:17;;;;;;;;;;;15.20;99.90;;;;;;8399669;28;20364;-73
2022/09/16 13:42:20;;;;;;;;;;;15.40;99.90;;;;;;8395690;28;19956;-73
2022/09/16 13:46:39;;;;;;;;;;;15.60;99.90;;;;;;8393109;28;20402;-73
2022/09/16 13:50:42;;;;;;;;;;;15.80;99.90;;;;;;8394690;28;20035;-74
2022/09/16 13:54:49;;;;;;;;;;;16.00;99.90;;;;;;8393254;28;19935;-73
2022/09/16 13:59:28;;;;;;;;;;;16.20;99.90;;;;;;8389735;28;20011;-73
2022/09/16 14:03:41;;;;;;;;;;;16.50;99.90;;;;;;8392783;28;19932;-74
2022/09/16 14:07:54;;;;;;;;;;;16.80;99.90;;;;;;8400900;28;19924;-74
2022/09/16 14:11:58;;;;;;;;;;;17.00;99.90;;;;;;8392439;28;20350;-73
2022/09/16 14:16:00;;;;;;;;;;;16.80;99.90;;;;;;8391063;28;20747;-74
2022/09/16 14:20:03;;;;;;;;;;;16.70;99.90;;;;;;8392434;28;20263;-73
2022/09/16 14:24:07;;;;;;;;;;;16.60;99.90;;;;;;8420627;27;19932;-74
2022/09/16 14:28:16;;;;;;;;;;;16.40;99.90;;;;;;8393548;28;19928;-74
2022/09/16 14:32:18;;;;;;;;;;;16.30;99.90;;;;;;8401939;28;20027;-73
2022/09/16 14:36:24;;;;;;;;;;;16.50;99.90;;;;;;8396898;28;19924;-73
2022/09/16 14:40:27;;;;;;;;;;;16.50;99.90;;;;;;8402907;28;20610;-74
2022/09/16 14:44:33;;;;;;;;;;;16.20;99.90;;;;;;8402098;28;19928;-74
2022/09/16 14:48:37;;;;;;;;;;;15.90;99.90;;;;;;8401633;28;19935;-74
2022/09/16 14:52:39;;;;;;;;;;;15.70;99.90;;;;;;8394736;28;19964;-74
2022/09/16 14:56:41;;;;;;;;;;;15.60;99.90;;;;;;8394604;28;19929;-74
2022/09/16 15:00:54;;;;;;;;;;;15.50;99.90;;;;;;8397305;28;19950;-74
2022/09/16 15:04:58;;;;;;;;;;;15.50;99.90;;;;;;8396497;28;20137;-74
2022/09/16 15:09:20;;;;;;;;;;;15.60;99.90;;;;;;8398422;28;20035;-73
2022/09/16 15:13:27;;;;;;;;;;;15.70;99.90;;;;;;8398725;28;19932;-73
2022/09/16 15:17:28;;;;;;;;;;;15.80;99.90;;;;;;8393139;28;20384;-74
2022/09/16 15:21:30;;;;;;;;;;;15.90;99.90;;;;;;8396206;28;19924;-74
2022/09/16 15:25:33;;;;;;;;;;;16.00;99.90;;;;;;8385588;28;19924;-74
2022/09/16 15:29:45;;;;;;;;;;;16.20;99.90;;;;;;8421778;27;19938;-75
2022/09/16 15:33:51;;;;;;;;;;;16.30;99.90;;;;;;8396022;28;19978;-74
2022/09/16 15:37:53;;;;;;;;;;;16.30;99.90;;;;;;8415403;27;20279;-74
2022/09/16 15:42:11;;;;;;;;;;;16.30;99.90;;;;;;8393904;28;19932;-74
2022/09/16 15:46:23;;;;;;;;;;;16.30;99.90;;;;;;8396362;28;19932;-74
2022/09/16 15:50:27;;;;;;;;;;;16.40;99.90;;;;;;8385361;28;19924;-74
2022/09/16 15:54:31;;;;;;;;;;;16.40;99.90;;;;;;8383417;28;19938;-75
2022/09/16 15:58:38;;;;;;;;;;;16.50;99.90;;;;;;8377017;28;19946;-74
2022/09/16 16:02:52;;;;;;;;;;;16.50;99.90;;;;;;8382278;28;19925;-73
2022/09/16 16:06:55;;;;;;;;;;;16.40;99.90;;;;;;8383117;28;19971;-73
2022/09/16 16:11:04;;;;;;;;;;;16.30;99.90;;;;;;8377525;28;20242;-74
2022/09/16 16:15:07;;;;;;;;;;;16.30;99.90;;;;;;8382617;28;20261;-74
2022/09/16 16:19:09;;;;;;;;;;;16.20;99.90;;;;;;8381180;28;19931;-73
2022/09/16 16:23:11;;;;;;;;;;;16.10;99.90;;;;;;8378770;28;20314;-74
2022/09/16 16:27:13;;;;;;;;;;;16.00;99.90;;;;;;8412848;27;19979;-74
2022/09/16 16:31:16;;;;;;;;;;;16.00;99.90;;;;;;8379411;28;20067;-73
2022/09/16 16:35:18;;;;;;;;;;;16.00;99.90;;;;;;8390035;28;19928;-73
2022/09/16 16:39:20;;;;;;;;;;;16.00;99.90;;;;;;8377242;28;19929;-74
2022/09/16 16:43:21;;;;;;;;;;;15.90;99.90;;;;;;8379379;28;20023;-73
2022/09/16 16:47:23;;;;;;;;;;;15.90;99.90;;;;;;8386257;28;19954;-74
2022/09/16 16:51:24;;;;;;;;;;;16.00;99.90;;;;;;8419833;27;20027;-73
2022/09/16 16:55:26;;;;;;;;;;;16.00;99.90;;;;;;8383428;28;20374;-74
2022/09/16 16:59:28;;;;;;;;;;;15.80;99.90;;;;;;8381941;28;19928;-75
2022/09/16 17:03:29;;;;;;;;;;;15.60;99.90;;;;;;8387820;28;20035;-74
2022/09/16 17:07:31;;;;;;;;;;;15.20;99.90;;;;;;8381804;28;19928;-74
2022/09/16 17:11:34;;;;;;;;;;;15.00;99.90;;;;;;8382132;28;19986;-74
2022/09/16 17:15:35;;;;;;;;;;;14.90;99.90;;;;;;8386574;28;19939;-73
2022/09/16 17:19:37;;;;;;;;;;;14.80;99.90;;;;;;8389427;28;19928;-74
2022/09/16 17:23:40;;;;;;;;;;;14.70;99.90;;;;;;8398458;28;20022;-74
2022/09/16 17:27:42;;;;;;;;;;;14.60;99.90;;;;;;8381920;28;20006;-74
2022/09/16 17:31:43;;;;;;;;;;;14.60;99.90;;;;;;8389064;28;20047;-73
2022/09/16 17:35:46;;;;;;;;;;;14.50;99.90;;;;;;8394104;28;19929;-73
2022/09/16 17:39:48;;;;;;;;;;;14.50;99.90;;;;;;8393394;28;19931;-74
2022/09/16 17:43:50;;;;;;;;;;;14.40;99.90;;;;;;8388546;28;20338;-73
2022/09/16 17:47:51;;;;;;;;;;;14.40;99.90;;;;;;8394994;28;19939;-73
2022/09/16 17:51:53;;;;;;;;;;;14.40;99.90;;;;;;8402407;28;20396;-74
2022/09/16 17:56:02;;;;;;;;;;;14.40;99.90;;;;;;8389314;28;20028;-74
2022/09/16 18:00:04;;;;;;;;;;;14.40;99.90;;;;;;8389486;28;19932;-74
2022/09/16 18:04:06;;;;;;;;;;;14.40;99.90;;;;;;8422865;27;19982;-74
2022/09/16 18:08:08;;;;;;;;;;;14.30;99.90;;;;;;8377371;28;20344;-73
2022/09/16 18:12:09;;;;;;;;;;;14.30;99.90;;;;;;8398416;28;20416;-73
2022/09/16 18:16:12;;;;;;;;;;;14.30;99.90;;;;;;8387230;28;19924;-74
2022/09/16 18:20:14;;;;;;;;;;;14.20;99.90;;;;;;8392052;28;19932;-73
2022/09/16 18:24:16;;;;;;;;;;;14.20;99.90;;;;;;8432893;27;19928;-73
2022/09/16 18:28:18;;;;;;;;;;;14.10;99.90;;;;;;8391154;28;19997;-74
2022/09/16 18:32:19;;;;;;;;;;;14.10;99.90;;;;;;8397919;28;19975;-74
2022/09/16 18:36:24;;;;;;;;;;;14.10;99.90;;;;;;8403538;28;20006;-73
2022/09/16 18:40:25;;;;;;;;;;;14.10;99.90;;;;;;8385460;28;19982;-74
2022/09/16 18:44:27;;;;;;;;;;;14.10;99.90;;;;;;8389067;28;19932;-74
2022/09/16 18:48:29;;;;;;;;;;;14.10;99.90;;;;;;8391827;28;19978;-73
2022/09/16 18:52:30;;;;;;;;;;;14.10;99.90;;;;;;8397025;28;19925;-74
2022/09/16 18:56:33;;;;;;;;;;;14.10;99.90;;;;;;8433254;27;20056;-73
2022/09/16 19:00:35;;;;;;;;;;;14.10;99.90;;;;;;8408849;28;19967;-73
2022/09/16 19:04:37;;;;;;;;;;;14.10;99.90;;;;;;8389460;28;19924;-73
2022/09/16 19:08:39;;;;;;;;;;;14.10;99.90;;;;;;8390654;28;20023;-73
2022/09/16 19:12:40;;;;;;;;;;;14.10;99.90;;;;;;8388199;28;19954;-75
2022/09/16 19:16:43;;;;;;;;;;;14.10;99.90;;;;;;8383508;28;19934;-74
2022/09/16 19:20:45;;;;;;;;;;;14.10;99.90;;;;;;8385670;28;19924;-74
2022/09/16 19:24:47;;;;;;;;;;;14.10;99.90;;;;;;8386694;28;20391;-74
2022/09/16 19:28:48;;;;;;;;;;;14.10;99.90;;;;;;8386830;28;19934;-73
2022/09/16 19:32:50;;;;;;;;;;;14.10;99.90;;;;;;8380696;28;20010;-73
2022/09/16 19:36:54;;;;;;;;;;;14.10;99.90;;;;;;8385843;28;19928;-73
2022/09/16 19:41:00;;;;;;;;;;;14.10;99.90;;;;;;8384362;28;20019;-74
2022/09/16 19:45:02;;;;;;;;;;;14.00;99.90;;;;;;8381916;28;19938;-73
2022/09/16 19:49:05;;;;;;;;;;;14.00;99.90;;;;;;8384237;28;20292;-74
2022/09/16 19:53:06;;;;;;;;;;;14.00;99.90;;;;;;8380466;28;20831;-73
2022/09/16 19:57:08;;;;;;;;;;;14.00;99.90;;;;;;8381869;28;20820;-74
2022/09/16 20:01:14;;;;;;;;;;;14.00;99.90;;;;;;8399167;28;19932;-74
2022/09/16 20:05:16;;;;;;;;;;;14.00;99.90;;;;;;8385156;28;20012;-73
2022/09/16 20:09:18;;;;;;;;;;;13.90;99.90;;;;;;8385394;28;19924;-74
2022/09/16 20:13:21;;;;;;;;;;;13.90;99.90;;;;;;8384832;28;19935;-73
2022/09/16 20:17:24;;;;;;;;;;;13.80;99.90;;;;;;8382242;28;20134;-73
2022/09/16 20:21:28;;;;;;;;;;;13.80;99.90;;;;;;8383647;28;19928;-73
2022/09/16 20:25:30;;;;;;;;;;;13.70;99.90;;;;;;8371677;28;19958;-73
2022/09/16 20:29:32;;;;;;;;;;;13.70;99.90;;;;;;8374075;28;22470;-73
2022/09/16 20:33:33;;;;;;;;;;;13.70;99.90;;;;;;8373483;28;20278;-73
2022/09/16 20:37:35;;;;;;;;;;;13.70;99.90;;;;;;8372661;28;20342;-73
2022/09/16 20:41:37;;;;;;;;;;;13.70;99.90;;;;;;8371805;28;21702;-73
2022/09/16 20:45:39;;;;;;;;;;;13.60;99.90;;;;;;8378251;28;19932;-73
2022/09/16 20:49:41;;;;;;;;;;;13.60;99.90;;;;;;8386603;28;20023;-73
2022/09/16 20:53:43;;;;;;;;;;;13.60;99.90;;;;;;8377951;28;19928;-73
2022/09/16 20:57:46;;;;;;;;;;;13.60;99.90;;;;;;8378136;28;19939;-74
2022/09/16 21:01:48;;;;;;;;;;;13.60;99.90;;;;;;8377998;28;19932;-73
2022/09/16 21:05:50;;;;;;;;;;;13.50;99.90;;;;;;8385247;28;19931;-73
2022/09/16 21:09:52;;;;;;;;;;;13.50;99.90;;;;;;8383682;28;19925;-73
2022/09/16 21:13:54;;;;;;;;;;;13.50;99.90;;;;;;8388094;28;20391;-73
2022/09/16 21:17:56;;;;;;;;;;;13.50;99.90;;;;;;8397720;28;20047;-73
2022/09/16 21:21:57;;;;;;;;;;;13.50;99.90;;;;;;8384151;28;20027;-73
2022/09/16 21:26:03;;;;;;;;;;;13.50;99.90;;;;;;8384291;28;19928;-73
2022/09/16 21:30:05;;;;;;;;;;;13.60;99.90;;;;;;8394433;28;19955;-73
2022/09/16 21:34:10;;;;;;;;;;;13.50;99.90;;;;;;8405783;28;20262;-73
2022/09/16 21:38:12;;;;;;;;;;;13.50;99.90;;;;;;8409964;28;19981;-73
2022/09/16 21:42:13;;;;;;;;;;;13.50;99.90;;;;;;8409137;28;19934;-73
2022/09/16 21:46:19;;;;;;;;;;;13.50;99.90;;;;;;8391620;28;19931;-73
2022/09/16 21:50:20;;;;;;;;;;;13.50;99.90;;;;;;8421095;28;20024;-73
2022/09/16 21:54:22;;;;;;;;;;;13.50;99.90;;;;;;8405827;27;19935;-73
2022/09/16 21:58:24;;;;;;;;;;;13.50;99.90;;;;;;8388737;28;20043;-73
2022/09/16 22:02:28;;;;;;;;;;;13.50;99.90;;;;;;8394746;28;19925;-74
2022/09/16 22:06:30;;;;;;;;;;;13.40;99.90;;;;;;8386962;28;20334;-73
2022/09/16 22:10:31;;;;;;;;;;;13.40;99.90;;;;;;8386439;28;19924;-73
2022/09/16 22:14:33;;;;;;;;;;;13.40;99.90;;;;;;8385199;28;20293;-73
2022/09/16 22:18:38;;;;;;;;;;;13.40;99.90;;;;;;8397672;28;19927;-73
2022/09/16 22:22:39;;;;;;;;;;;13.30;99.90;;;;;;8387018;28;20569;-73
2022/09/16 22:26:42;;;;;;;;;;;13.30;99.90;;;;;;8382496;28;20022;-73
2022/09/16 22:30:43;;;;;;;;;;;13.20;99.90;;;;;;8387268;28;20330;-73
2022/09/16 22:34:45;;;;;;;;;;;13.20;99.90;;;;;;8400289;28;19946;-73
2022/09/16 22:38:48;;;;;;;;;;;13.20;99.90;;;;;;8414410;27;19924;-73
2022/09/16 22:42:49;;;;;;;;;;;13.20;99.90;;;;;;8381386;28;19925;-73
2022/09/16 22:46:51;;;;;;;;;;;13.20;99.90;;;;;;8383296;28;20023;-74
2022/09/16 22:50:53;;;;;;;;;;;13.20;99.90;;;;;;8405813;28;19924;-73
2022/09/16 22:54:55;;;;;;;;;;;13.10;99.90;;;;;;8393815;28;20359;-73
2022/09/16 22:58:57;;;;;;;;;;;13.10;99.90;;;;;;8380480;28;20020;-73
2022/09/16 23:02:59;;;;;;;;;;;13.10;99.90;;;;;;8383076;28;19959;-73
2022/09/16 23:07:00;;;;;;;;;;;13.10;99.90;;;;;;8378665;28;19925;-73
2022/09/16 23:11:03;;;;;;;;;;;13.10;99.90;;;;;;8381863;28;19954;-73
2022/09/16 23:15:05;;;;;;;;;;;13.10;99.90;;;;;;8384097;28;20010;-73
2022/09/16 23:19:09;;;;;;;;;;;13.10;99.90;;;;;;8387823;28;19954;-73
2022/09/16 23:23:11;;;;;;;;;;;13.20;99.90;;;;;;8384256;28;19933;-73
2022/09/16 23:27:12;;;;;;;;;;;13.20;99.90;;;;;;8383948;28;20292;-73
2022/09/16 23:31:15;;;;;;;;;;;13.20;99.90;;;;;;8382655;28;19933;-73
2022/09/16 23:35:17;;;;;;;;;;;13.20;99.90;;;;;;8376387;28;19924;-73
2022/09/16 23:39:18;;;;;;;;;;;13.20;99.90;;;;;;8392918;28;20332;-73
2022/09/16 23:43:20;;;;;;;;;;;13.20;99.90;;;;;;8402455;28;20015;-73